createdAt,value
2018-08-25T00:00:41.889Z,0
2018-08-25T00:01:52.100Z,0
2018-08-25T00:03:01.973Z,0
2018-08-25T00:04:11.841Z,0
2018-08-25T00:05:21.893Z,0
2018-08-25T00:06:33.044Z,0
2018-08-25T00:07:43.208Z,0
2018-08-25T00:08:52.833Z,0
2018-08-25T00:10:03.075Z,0
2018-08-25T00:11:13.403Z,0
2018-08-25T00:12:23.353Z,0
2018-08-25T00:13:34.088Z,0
2018-08-25T00:14:43.984Z,0
2018-08-25T00:15:54.158Z,0
2018-08-25T00:17:04.470Z,0
2018-08-25T00:18:14.680Z,0
2018-08-25T00:19:24.938Z,0
2018-08-25T00:20:34.933Z,0
2018-08-25T00:21:45.104Z,0
2018-08-25T00:22:55.516Z,0
2018-08-25T00:24:05.810Z,0
2018-08-25T00:25:15.979Z,0
2018-08-25T00:26:26.254Z,0
2018-08-25T00:27:36.514Z,0
2018-08-25T00:28:46.475Z,0
2018-08-25T00:29:56.415Z,0
2018-08-25T00:31:06.374Z,0
2018-08-25T00:32:16.509Z,0
2018-08-25T00:33:26.684Z,0
2018-08-25T00:34:36.919Z,0
2018-08-25T00:35:47.107Z,0
2018-08-25T00:36:57.363Z,0
2018-08-25T00:38:07.554Z,0
2018-08-25T00:39:17.723Z,0
2018-08-25T00:40:27.505Z,0
2018-08-25T00:41:37.776Z,0
2018-08-25T00:42:47.955Z,0
2018-08-25T00:43:58.083Z,0
2018-08-25T00:45:08.340Z,0
2018-08-25T00:46:18.526Z,0
2018-08-25T00:47:28.696Z,0
2018-08-25T00:48:38.618Z,0
2018-08-25T00:49:48.742Z,0
2018-08-25T00:50:59.034Z,0
2018-08-25T00:52:09.225Z,0
2018-08-25T00:53:19.476Z,0
2018-08-25T00:54:29.409Z,0
2018-08-25T00:55:39.544Z,0
2018-08-25T00:56:49.692Z,0
2018-08-25T00:57:59.813Z,0
2018-08-25T00:59:10.012Z,0
2018-08-25T01:00:20.274Z,0
2018-08-25T01:01:30.149Z,0
2018-08-25T01:02:40.518Z,0
2018-08-25T01:03:50.678Z,0
2018-08-25T01:05:00.541Z,0
2018-08-25T01:06:42.633Z,0
2018-08-25T01:07:52.826Z,0
2018-08-25T01:09:02.947Z,0
2018-08-25T01:10:13.078Z,0
2018-08-25T01:11:23.200Z,0
2018-08-25T01:12:33.319Z,0
2018-08-25T01:13:43.476Z,0
2018-08-25T01:14:53.656Z,0
2018-08-25T01:16:03.900Z,0
2018-08-25T01:17:14.130Z,0
2018-08-25T01:18:24.325Z,0
2018-08-25T01:19:34.477Z,0
2018-08-25T01:20:44.630Z,0
2018-08-25T01:21:54.829Z,0
2018-08-25T01:23:04.966Z,0
2018-08-25T01:24:15.346Z,0
2018-08-25T01:25:25.503Z,0
2018-08-25T01:26:35.707Z,0
2018-08-25T01:27:45.819Z,0
2018-08-25T01:28:56.029Z,0
2018-08-25T01:30:06.167Z,0
2018-08-25T01:31:16.302Z,0
2018-08-25T01:32:26.686Z,0
2018-08-25T01:33:36.817Z,0
2018-08-25T01:34:46.999Z,0
2018-08-25T01:35:56.863Z,0
2018-08-25T01:37:07.022Z,0
2018-08-25T01:38:16.822Z,0
2018-08-25T01:39:26.961Z,0
2018-08-25T01:40:37.309Z,0
2018-08-25T01:41:47.434Z,0
2018-08-25T01:42:57.591Z,0
2018-08-25T01:44:07.754Z,0
2018-08-25T01:45:17.915Z,0
2018-08-25T01:46:28.212Z,0
2018-08-25T01:47:38.446Z,0
2018-08-25T01:48:48.636Z,0
2018-08-25T01:49:58.802Z,0
2018-08-25T01:51:08.722Z,0
2018-08-25T01:52:18.875Z,0
2018-08-25T01:53:29.032Z,0
2018-08-25T01:54:40.273Z,0
2018-08-25T01:55:50.192Z,0
2018-08-25T01:57:00.376Z,0
2018-08-25T01:58:10.510Z,0
2018-08-25T01:59:20.655Z,0
2018-08-25T02:00:30.791Z,0
2018-08-25T02:01:41.022Z,0
2018-08-25T02:02:51.633Z,0
2018-08-25T02:04:02.079Z,0
2018-08-25T02:05:12.261Z,0
2018-08-25T02:06:22.450Z,0
2018-08-25T02:07:32.633Z,0
2018-08-25T02:08:42.919Z,0
2018-08-25T02:09:53.178Z,0
2018-08-25T02:11:03.438Z,0
2018-08-25T02:12:13.639Z,0
2018-08-25T02:13:23.809Z,0
2018-08-25T02:14:34.167Z,0
2018-08-25T02:15:45.286Z,0
2018-08-25T02:16:55.438Z,0
2018-08-25T02:18:05.701Z,0
2018-08-25T02:19:15.949Z,0
2018-08-25T02:20:26.084Z,0
2018-08-25T02:21:36.348Z,0
2018-08-25T02:22:46.529Z,0
2018-08-25T02:23:56.793Z,0
2018-08-25T02:25:06.459Z,0
2018-08-25T02:26:16.591Z,0
2018-08-25T02:27:26.725Z,0
2018-08-25T02:28:36.858Z,0
2018-08-25T02:29:46.980Z,0
2018-08-25T02:30:56.845Z,0
2018-08-25T02:32:06.998Z,0
2018-08-25T02:33:17.159Z,0
2018-08-25T02:34:27.286Z,0
2018-08-25T02:35:37.464Z,0
2018-08-25T02:36:46.973Z,0
2018-08-25T02:37:57.228Z,0
2018-08-25T02:39:07.098Z,0
2018-08-25T02:40:17.232Z,0
2018-08-25T02:41:27.101Z,0
2018-08-25T02:42:36.987Z,0
2018-08-25T02:43:47.151Z,0
2018-08-25T02:44:57.310Z,0
2018-08-25T02:46:07.432Z,0
2018-08-25T02:47:17.582Z,0
2018-08-25T02:48:27.741Z,0
2018-08-25T02:49:37.896Z,0
2018-08-25T02:50:48.248Z,0
2018-08-25T02:51:58.366Z,0
2018-08-25T02:53:08.252Z,0
2018-08-25T02:54:18.376Z,0
2018-08-25T02:55:28.510Z,0
2018-08-25T02:56:38.419Z,0
2018-08-25T02:57:48.543Z,0
2018-08-25T02:58:58.662Z,0
2018-08-25T03:00:08.895Z,0
2018-08-25T03:01:19.032Z,0
2018-08-25T03:02:28.939Z,0
2018-08-25T03:03:39.052Z,0
2018-08-25T03:04:49.240Z,0
2018-08-25T03:05:59.373Z,0
2018-08-25T03:07:09.497Z,0
2018-08-25T03:08:19.612Z,0
2018-08-25T03:09:29.730Z,0
2018-08-25T03:10:39.896Z,0
2018-08-25T03:11:50.033Z,0
2018-08-25T03:13:00.276Z,0
2018-08-25T03:14:09.981Z,0
2018-08-25T03:15:20.226Z,0
2018-08-25T03:16:31.324Z,0
2018-08-25T03:17:41.449Z,0
2018-08-25T03:18:51.562Z,0
2018-08-25T03:20:01.701Z,0
2018-08-25T03:21:11.579Z,0
2018-08-25T03:22:21.689Z,0
2018-08-25T03:23:31.937Z,0
2018-08-25T03:24:42.100Z,0
2018-08-25T03:25:52.235Z,0
2018-08-25T03:27:02.405Z,0
2018-08-25T03:28:12.573Z,0
2018-08-25T03:29:22.871Z,0
2018-08-25T03:30:33.068Z,0
2018-08-25T03:31:42.938Z,0
2018-08-25T03:32:53.067Z,0
2018-08-25T03:34:03.245Z,0
2018-08-25T03:35:13.442Z,0
2018-08-25T03:36:23.698Z,0
2018-08-25T03:37:33.875Z,0
2018-08-25T03:38:43.872Z,0
2018-08-25T03:39:54.019Z,0
2018-08-25T03:41:04.190Z,0
2018-08-25T03:42:14.387Z,0
2018-08-25T03:43:24.258Z,0
2018-08-25T03:44:34.374Z,4
2018-08-25T03:45:44.502Z,4
2018-08-25T03:46:54.694Z,0
2018-08-25T03:48:04.880Z,0
2018-08-25T03:49:14.994Z,4
2018-08-25T03:50:25.100Z,4
2018-08-25T03:51:35.225Z,4
2018-08-25T03:52:45.346Z,4
2018-08-25T03:53:54.971Z,8
2018-08-25T03:55:05.086Z,4
2018-08-25T03:56:15.203Z,8
2018-08-25T03:57:25.345Z,8
2018-08-25T03:58:35.484Z,8
2018-08-25T03:59:45.604Z,8
2018-08-25T04:00:55.753Z,12
2018-08-25T04:02:05.887Z,16
2018-08-25T04:03:15.995Z,20
2018-08-25T04:04:25.631Z,20
2018-08-25T04:05:35.858Z,28
2018-08-25T04:06:45.982Z,28
2018-08-25T04:07:56.112Z,36
2018-08-25T04:09:06.263Z,40
2018-08-25T04:10:16.438Z,40
2018-08-25T04:11:26.582Z,48
2018-08-25T04:12:36.398Z,56
2018-08-25T04:13:46.562Z,56
2018-08-25T04:14:56.756Z,60
2018-08-25T04:16:07.219Z,68
2018-08-25T04:17:17.335Z,72
2018-08-25T04:18:27.491Z,76
2018-08-25T04:19:37.622Z,88
2018-08-25T04:20:47.795Z,96
2018-08-25T04:21:58.150Z,108
2018-08-25T04:23:08.310Z,116
2018-08-25T04:24:19.396Z,128
2018-08-25T04:25:29.547Z,144
2018-08-25T04:26:39.679Z,164
2018-08-25T04:27:49.802Z,180
2018-08-25T04:29:00.909Z,200
2018-08-25T04:30:11.022Z,220
2018-08-25T04:31:21.162Z,244
2018-08-25T04:32:30.968Z,268
2018-08-25T04:33:41.332Z,296
2018-08-25T04:34:51.478Z,320
2018-08-25T04:36:01.647Z,336
2018-08-25T04:37:11.828Z,364
2018-08-25T04:38:21.973Z,384
2018-08-25T04:39:32.097Z,412
2018-08-25T04:40:41.869Z,436
2018-08-25T04:41:51.669Z,464
2018-08-25T04:43:01.806Z,492
2018-08-25T04:44:11.949Z,524
2018-08-25T04:45:21.590Z,560
2018-08-25T04:46:31.736Z,592
2018-08-25T04:47:41.970Z,624
2018-08-25T04:48:53.099Z,664
2018-08-25T04:50:03.225Z,696
2018-08-25T04:51:13.131Z,732
2018-08-25T04:52:22.954Z,764
2018-08-25T04:53:33.078Z,796
2018-08-25T04:54:43.255Z,828
2018-08-25T04:55:53.407Z,860
2018-08-25T04:57:03.543Z,896
2018-08-25T04:58:13.668Z,936
2018-08-25T04:59:23.626Z,980
2018-08-25T05:00:33.491Z,1020
2018-08-25T05:01:43.684Z,1056
2018-08-25T05:02:53.654Z,1092
2018-08-25T05:04:03.772Z,1136
2018-08-25T05:05:13.899Z,1184
2018-08-25T05:06:24.145Z,1232
2018-08-25T05:07:34.440Z,1288
2018-08-25T05:08:44.400Z,1336
2018-08-25T05:09:54.618Z,1380
2018-08-25T05:11:05.011Z,1416
2018-08-25T05:12:15.142Z,1456
2018-08-25T05:13:24.960Z,1492
2018-08-25T05:14:35.136Z,1532
2018-08-25T05:15:45.351Z,1576
2018-08-25T05:16:55.491Z,1616
2018-08-25T05:18:05.686Z,1652
2018-08-25T05:19:15.851Z,1692
2018-08-25T05:20:25.959Z,1744
2018-08-25T05:21:36.101Z,1800
2018-08-25T05:22:46.003Z,1860
2018-08-25T05:23:56.176Z,1924
2018-08-25T05:25:06.287Z,1988
2018-08-25T05:26:17.382Z,2056
2018-08-25T05:27:27.294Z,2120
2018-08-25T05:28:37.421Z,2176
2018-08-25T05:29:47.740Z,2240
2018-08-25T05:30:57.878Z,2300
2018-08-25T05:32:07.761Z,2364
2018-08-25T05:33:17.540Z,2440
2018-08-25T05:34:27.459Z,2508
2018-08-25T05:35:37.605Z,2576
2018-08-25T05:36:47.767Z,2648
2018-08-25T05:37:57.740Z,2728
2018-08-25T05:39:07.864Z,2808
2018-08-25T05:40:17.772Z,2900
2018-08-25T05:41:27.638Z,2992
2018-08-25T05:42:37.645Z,3080
2018-08-25T05:43:47.593Z,3172
2018-08-25T05:44:57.707Z,3256
2018-08-25T05:46:07.845Z,3332
2018-08-25T05:47:17.968Z,3412
2018-08-25T05:48:28.246Z,3452
2018-08-25T05:49:38.406Z,3484
2018-08-25T05:50:48.693Z,3508
2018-08-25T05:51:58.826Z,3532
2018-08-25T05:53:09.021Z,3552
2018-08-25T05:54:19.241Z,3584
2018-08-25T05:55:29.388Z,3620
2018-08-25T05:56:39.268Z,3668
2018-08-25T05:57:49.768Z,3736
2018-08-25T05:59:00.079Z,3812
2018-08-25T06:00:10.264Z,3896
2018-08-25T06:01:20.548Z,3996
2018-08-25T06:02:30.773Z,4116
2018-08-25T06:03:40.653Z,4260
2018-08-25T06:04:50.897Z,4408
2018-08-25T06:06:01.040Z,4556
2018-08-25T06:07:10.849Z,4692
2018-08-25T06:08:21.051Z,4732
2018-08-25T06:09:31.208Z,4716
2018-08-25T06:10:41.562Z,4620
2018-08-25T06:11:51.680Z,4604
2018-08-25T06:13:01.843Z,4620
2018-08-25T06:14:12.064Z,4636
2018-08-25T06:15:22.272Z,4664
2018-08-25T06:16:32.477Z,4732
2018-08-25T06:17:42.958Z,4828
2018-08-25T06:18:53.378Z,4896
2018-08-25T06:20:03.282Z,4988
2018-08-25T06:21:13.411Z,5076
2018-08-25T06:22:23.601Z,5140
2018-08-25T06:23:33.751Z,5200
2018-08-25T06:24:44.026Z,5264
2018-08-25T06:25:54.361Z,5336
2018-08-25T06:27:04.494Z,5436
2018-08-25T06:28:15.639Z,5516
2018-08-25T06:29:25.982Z,5600
2018-08-25T06:30:36.146Z,5672
2018-08-25T06:31:46.010Z,5744
2018-08-25T06:32:55.900Z,5820
2018-08-25T06:34:06.085Z,5908
2018-08-25T06:35:16.250Z,5996
2018-08-25T06:36:26.173Z,6088
2018-08-25T06:37:36.486Z,6196
2018-08-25T06:38:46.648Z,6308
2018-08-25T06:39:56.931Z,6416
2018-08-25T06:41:07.195Z,6492
2018-08-25T06:42:17.359Z,6560
2018-08-25T06:43:27.671Z,6652
2018-08-25T06:44:37.931Z,6788
2018-08-25T06:45:48.150Z,6924
2018-08-25T06:46:58.045Z,7024
2018-08-25T06:48:08.242Z,7128
2018-08-25T06:49:18.368Z,7304
2018-08-25T06:50:28.494Z,7528
2018-08-25T06:51:38.707Z,7900
2018-08-25T06:52:48.888Z,8284
2018-08-25T06:53:58.774Z,8276
2018-08-25T06:55:08.941Z,8348
2018-08-25T06:56:19.082Z,8488
2018-08-25T06:57:29.226Z,8940
2018-08-25T06:58:39.119Z,9416
2018-08-25T06:59:49.269Z,9952
2018-08-25T07:00:59.492Z,10236
2018-08-25T07:02:09.710Z,10008
2018-08-25T07:03:19.934Z,9584
2018-08-25T07:04:30.173Z,9436
2018-08-25T07:05:40.349Z,9544
2018-08-25T07:06:50.614Z,9416
2018-08-25T07:08:00.816Z,9308
2018-08-25T07:09:10.735Z,9232
2018-08-25T07:10:20.882Z,9040
2018-08-25T07:11:31.024Z,8920
2018-08-25T07:12:41.365Z,8708
2018-08-25T07:13:52.504Z,8988
2018-08-25T07:15:02.691Z,9288
2018-08-25T07:16:12.852Z,9000
2018-08-25T07:17:23.012Z,8404
2018-08-25T07:18:32.712Z,7888
2018-08-25T07:19:43.006Z,7760
2018-08-25T07:20:53.158Z,6992
2018-08-25T07:22:03.360Z,6296
2018-08-25T07:23:13.619Z,6140
2018-08-25T07:24:23.789Z,6424
2018-08-25T07:25:33.704Z,6596
2018-08-25T07:26:43.882Z,6796
2018-08-25T07:27:53.800Z,6604
2018-08-25T07:29:03.690Z,6448
2018-08-25T07:30:13.970Z,6064
2018-08-25T07:31:24.145Z,5396
2018-08-25T07:32:34.305Z,4836
2018-08-25T07:33:44.738Z,4508
2018-08-25T07:34:54.907Z,4032
2018-08-25T07:36:04.717Z,3924
2018-08-25T07:37:14.946Z,3548
2018-08-25T07:38:25.863Z,3360
2018-08-25T07:39:36.025Z,3376
2018-08-25T07:40:46.027Z,3440
2018-08-25T07:41:55.912Z,3708
2018-08-25T07:43:06.056Z,4092
2018-08-25T07:44:16.249Z,4352
2018-08-25T07:45:26.940Z,4740
2018-08-25T07:46:37.204Z,5048
2018-08-25T07:47:47.352Z,5400
2018-08-25T07:48:57.516Z,5944
2018-08-25T07:50:07.743Z,6492
2018-08-25T07:51:17.964Z,7348
2018-08-25T07:52:29.253Z,8740
2018-08-25T07:53:39.629Z,9768
2018-08-25T07:54:49.901Z,10528
2018-08-25T07:56:00.112Z,10500
2018-08-25T07:57:10.263Z,9932
2018-08-25T07:58:20.437Z,10856
2018-08-25T07:59:30.744Z,10716
2018-08-25T08:00:40.935Z,10928
2018-08-25T08:01:51.106Z,11188
2018-08-25T08:03:01.266Z,11736
2018-08-25T08:04:11.407Z,12088
2018-08-25T08:05:21.640Z,12940
2018-08-25T08:06:31.882Z,12428
2018-08-25T08:07:42.069Z,12420
2018-08-25T08:08:52.330Z,11588
2018-08-25T08:10:02.489Z,11008
2018-08-25T08:11:12.624Z,11272
2018-08-25T08:12:22.772Z,11768
2018-08-25T08:13:33.004Z,11828
2018-08-25T08:14:43.154Z,11976
2018-08-25T08:15:53.151Z,10320
2018-08-25T08:17:03.301Z,10088
2018-08-25T08:18:13.471Z,10320
2018-08-25T08:19:23.313Z,11116
2018-08-25T08:20:33.559Z,10916
2018-08-25T08:21:43.457Z,10784
2018-08-25T08:22:53.598Z,11968
2018-08-25T08:24:04.340Z,12200
2018-08-25T08:25:14.499Z,12392
2018-08-25T08:26:24.669Z,12640
2018-08-25T08:27:34.558Z,12888
2018-08-25T08:28:44.701Z,13224
2018-08-25T08:29:54.889Z,13916
2018-08-25T08:31:05.087Z,14848
2018-08-25T08:32:14.896Z,14816
2018-08-25T08:33:25.107Z,15392
2018-08-25T08:34:35.250Z,16352
2018-08-25T08:35:45.529Z,13288
2018-08-25T08:36:55.738Z,17248
2018-08-25T08:38:05.883Z,19104
2018-08-25T08:39:15.836Z,20192
2018-08-25T08:40:26.039Z,23200
2018-08-25T08:41:36.228Z,23072
2018-08-25T08:42:46.415Z,22592
2018-08-25T08:43:56.327Z,27328
2018-08-25T08:45:06.533Z,18816
2018-08-25T08:46:16.732Z,16832
2018-08-25T08:47:27.095Z,14080
2018-08-25T08:48:37.175Z,38944
2018-08-25T08:49:54.157Z,9268
2018-08-25T08:51:04.431Z,9948
2018-08-25T08:52:14.635Z,11620
2018-08-25T08:53:24.831Z,13060
2018-08-25T08:54:35.949Z,13868
2018-08-25T08:55:46.091Z,14144
2018-08-25T08:56:56.237Z,16512
2018-08-25T08:58:06.394Z,20096
2018-08-25T08:59:16.907Z,25600
2018-08-25T09:00:27.087Z,22880
2018-08-25T09:01:37.285Z,9508
2018-08-25T09:02:47.473Z,12044
2018-08-25T09:03:57.630Z,11720
2018-08-25T09:05:07.797Z,13176
2018-08-25T09:06:17.712Z,14080
2018-08-25T09:07:27.904Z,11844
2018-08-25T09:08:38.094Z,11876
2018-08-25T09:09:48.359Z,11996
2018-08-25T09:10:57.944Z,10188
2018-08-25T09:12:08.164Z,8592
2018-08-25T09:13:18.327Z,7432
2018-08-25T09:14:28.279Z,6340
2018-08-25T09:15:38.685Z,5336
2018-08-25T09:16:48.840Z,4756
2018-08-25T09:17:58.806Z,4960
2018-08-25T09:19:09.055Z,5328
2018-08-25T09:20:18.992Z,6244
2018-08-25T09:21:29.175Z,7480
2018-08-25T09:22:39.341Z,8732
2018-08-25T09:23:49.503Z,9416
2018-08-25T09:24:59.700Z,10276
2018-08-25T09:26:09.621Z,11032
2018-08-25T09:27:19.673Z,11236
2018-08-25T09:28:29.950Z,11220
2018-08-25T09:29:40.140Z,12392
2018-08-25T09:30:50.440Z,12788
2018-08-25T09:32:00.748Z,11312
2018-08-25T09:33:10.902Z,11264
2018-08-25T09:34:21.920Z,13468
2018-08-25T09:35:32.229Z,15136
2018-08-25T09:36:43.046Z,10908
2018-08-25T09:37:53.584Z,11192
2018-08-25T09:39:03.750Z,14656
2018-08-25T09:40:14.004Z,17024
2018-08-25T09:41:24.210Z,21728
2018-08-25T09:42:34.495Z,16480
2018-08-25T09:43:44.720Z,15936
2018-08-25T09:44:54.964Z,13392
2018-08-25T09:46:04.803Z,13500
2018-08-25T09:47:15.186Z,14720
2018-08-25T09:48:25.360Z,16768
2018-08-25T09:49:36.532Z,19552
2018-08-25T09:50:46.721Z,17408
2018-08-25T09:51:56.914Z,17664
2018-08-25T09:53:06.713Z,17536
2018-08-25T09:54:16.893Z,18176
2018-08-25T09:55:27.063Z,19200
2018-08-25T09:56:36.984Z,17120
2018-08-25T09:57:47.135Z,16224
2018-08-25T09:58:57.756Z,15328
2018-08-25T10:00:08.321Z,14592
2018-08-25T10:01:18.468Z,13940
2018-08-25T10:02:28.615Z,11460
2018-08-25T10:03:38.786Z,9128
2018-08-25T10:04:48.943Z,7568
2018-08-25T10:05:58.854Z,7224
2018-08-25T10:07:09.139Z,6832
2018-08-25T10:08:19.556Z,7024
2018-08-25T10:09:29.713Z,8604
2018-08-25T10:10:39.880Z,9580
2018-08-25T10:11:49.826Z,9680
2018-08-25T10:13:00.018Z,8988
2018-08-25T10:14:10.172Z,7568
2018-08-25T10:15:20.345Z,6684
2018-08-25T10:16:30.815Z,5396
2018-08-25T10:17:41.320Z,4400
2018-08-25T10:18:51.480Z,3068
2018-08-25T10:20:01.634Z,2932
2018-08-25T10:21:11.796Z,3572
2018-08-25T10:22:21.957Z,3416
2018-08-25T10:23:32.187Z,3028
2018-08-25T10:24:42.570Z,3356
2018-08-25T10:25:52.802Z,2980
2018-08-25T10:27:02.744Z,2708
2018-08-25T10:28:12.897Z,2564
2018-08-25T10:29:23.077Z,2616
2018-08-25T10:30:33.954Z,3024
2018-08-25T10:31:44.163Z,3536
2018-08-25T10:32:54.432Z,4012
2018-08-25T10:34:04.623Z,4476
2018-08-25T10:35:14.761Z,4756
2018-08-25T10:36:24.751Z,4728
2018-08-25T10:37:34.967Z,4496
2018-08-25T10:38:45.151Z,4308
2018-08-25T10:39:55.404Z,4276
2018-08-25T10:41:05.644Z,4340
2018-08-25T10:42:16.344Z,4304
2018-08-25T10:43:26.513Z,4612
2018-08-25T10:44:36.668Z,5192
2018-08-25T10:45:46.951Z,5840
2018-08-25T10:46:56.830Z,5884
2018-08-25T10:48:06.793Z,5496
2018-08-25T10:49:17.232Z,5404
2018-08-25T10:50:27.445Z,5520
2018-08-25T10:51:37.647Z,5652
2018-08-25T10:52:47.818Z,5668
2018-08-25T10:53:57.822Z,5852
2018-08-25T10:55:08.301Z,6044
2018-08-25T10:56:18.518Z,5780
2018-08-25T10:57:28.678Z,5536
2018-08-25T10:58:38.712Z,5340
2018-08-25T10:59:48.598Z,5196
2018-08-25T11:00:59.991Z,5328
2018-08-25T11:02:10.689Z,5876
2018-08-25T11:03:20.849Z,7332
2018-08-25T11:04:31.016Z,9868
2018-08-25T11:05:41.201Z,13312
2018-08-25T11:06:51.481Z,15232
2018-08-25T11:08:01.652Z,13484
2018-08-25T11:09:11.843Z,10792
2018-08-25T11:10:21.807Z,8076
2018-08-25T11:11:31.965Z,7172
2018-08-25T11:12:42.155Z,6896
2018-08-25T11:13:52.357Z,7292
2018-08-25T11:15:02.524Z,8024
2018-08-25T11:16:12.714Z,9116
2018-08-25T11:17:23.043Z,10664
2018-08-25T11:18:33.250Z,12292
2018-08-25T11:19:43.511Z,13768
2018-08-25T11:20:53.709Z,17472
2018-08-25T11:22:03.883Z,19840
2018-08-25T11:23:14.055Z,17440
2018-08-25T11:24:24.255Z,17472
2018-08-25T11:25:34.432Z,22848
2018-08-25T11:26:44.684Z,38176
2018-08-25T11:27:54.937Z,59136
2018-08-25T11:29:05.178Z,44128
2018-08-25T11:30:15.400Z,46368
2018-08-25T11:31:25.629Z,76992
2018-08-25T11:32:35.797Z,36992
2018-08-25T11:33:46.044Z,34528
2018-08-25T11:34:56.074Z,49312
2018-08-25T11:36:06.272Z,55680
2018-08-25T11:37:16.421Z,80096
2018-08-25T11:38:26.784Z,42592
2018-08-25T11:39:36.956Z,41504
2018-08-25T11:40:47.161Z,47360
2018-08-25T11:41:57.091Z,26720
2018-08-25T11:43:07.321Z,24864
2018-08-25T11:44:17.792Z,32096
2018-08-25T11:45:28.033Z,26272
2018-08-25T11:46:38.103Z,16864
2018-08-25T11:47:48.274Z,13860
2018-08-25T11:48:58.491Z,11096
2018-08-25T11:50:08.732Z,8604
2018-08-25T11:51:18.698Z,7012
2018-08-25T11:52:28.859Z,6096
2018-08-25T11:53:39.014Z,5496
2018-08-25T11:54:49.206Z,5212
2018-08-25T11:55:59.377Z,5752
2018-08-25T11:57:09.542Z,5232
2018-08-25T11:58:19.527Z,5280
2018-08-25T11:59:29.668Z,6448
2018-08-25T12:00:39.699Z,9644
2018-08-25T12:01:50.054Z,15680
2018-08-25T12:02:59.950Z,23808
2018-08-25T12:04:12.294Z,18976
2018-08-25T12:05:22.597Z,23520
2018-08-25T12:06:32.824Z,25440
2018-08-25T12:07:43.550Z,24512
2018-08-25T12:08:53.816Z,17728
2018-08-25T12:10:04.049Z,15520
2018-08-25T12:11:14.508Z,14272
2018-08-25T12:12:25.409Z,12332
2018-08-25T12:13:35.641Z,10456
2018-08-25T12:14:46.008Z,10696
2018-08-25T12:15:56.203Z,12096
2018-08-25T12:17:06.569Z,14336
2018-08-25T12:18:16.832Z,17632
2018-08-25T12:19:27.206Z,24032
2018-08-25T12:20:37.685Z,32160
2018-08-25T12:21:48.329Z,73632
2018-08-25T12:22:58.925Z,85856
2018-08-25T12:24:09.689Z,68832
2018-08-25T12:25:19.785Z,58656
2018-08-25T12:26:30.242Z,57952
2018-08-25T12:27:40.485Z,72736
2018-08-25T12:28:50.396Z,75744
2018-08-25T12:30:00.682Z,68320
2018-08-25T12:31:11.112Z,65440
2018-08-25T12:32:21.068Z,65408
2018-08-25T12:33:31.232Z,64640
2018-08-25T12:34:41.799Z,65088
2018-08-25T12:35:52.195Z,65216
2018-08-25T12:37:02.534Z,64384
2018-08-25T12:38:12.961Z,71200
2018-08-25T12:39:23.398Z,72128
2018-08-25T12:40:33.738Z,59680
2018-08-25T12:41:44.343Z,53344
2018-08-25T12:42:54.041Z,63808
2018-08-25T12:44:04.248Z,71552
2018-08-25T12:45:15.095Z,67360
2018-08-25T12:46:25.200Z,61184
2018-08-25T12:47:35.498Z,60192
2018-08-25T12:48:45.934Z,63232
2018-08-25T12:49:56.556Z,65248
2018-08-25T12:51:06.758Z,62784
2018-08-25T12:52:16.758Z,59200
2018-08-25T12:53:26.960Z,58560
2018-08-25T12:54:37.388Z,63712
2018-08-25T12:55:47.791Z,65184
2018-08-25T12:56:58.935Z,64640
2018-08-25T12:58:09.842Z,64832
2018-08-25T12:59:20.164Z,36256
2018-08-25T13:00:30.381Z,55712
2018-08-25T13:01:40.765Z,59168
2018-08-25T13:02:50.771Z,63520
2018-08-25T13:04:00.991Z,62208
2018-08-25T13:05:11.185Z,58976
2018-08-25T13:06:21.080Z,57856
2018-08-25T13:07:32.055Z,18240
2018-08-25T13:08:42.427Z,21472
2018-08-25T13:09:52.670Z,13160
2018-08-25T13:11:02.925Z,11364
2018-08-25T13:12:12.577Z,10620
2018-08-25T13:13:22.809Z,10256
2018-08-25T13:14:33.094Z,8964
2018-08-25T13:15:43.613Z,7140
2018-08-25T13:16:53.909Z,5652
2018-08-25T13:18:03.905Z,4904
2018-08-25T13:19:14.098Z,4604
2018-08-25T13:20:24.292Z,4284
2018-08-25T13:21:34.714Z,4168
2018-08-25T13:22:45.118Z,5028
2018-08-25T13:23:55.342Z,9112
2018-08-25T13:25:05.889Z,8964
2018-08-25T13:26:16.105Z,7648
2018-08-25T13:27:26.366Z,7352
2018-08-25T13:28:37.232Z,6748
2018-08-25T13:29:47.510Z,5660
2018-08-25T13:30:58.477Z,4996
2018-08-25T13:32:08.984Z,4576
2018-08-25T13:33:19.179Z,4404
2018-08-25T13:34:29.551Z,4052
2018-08-25T13:35:40.033Z,3768
2018-08-25T13:36:50.233Z,3748
2018-08-25T13:38:00.667Z,4184
2018-08-25T13:39:11.180Z,4824
2018-08-25T13:40:21.955Z,5564
2018-08-25T13:41:32.141Z,7436
2018-08-25T13:42:42.591Z,12216
2018-08-25T13:43:53.075Z,41120
2018-08-25T13:45:03.493Z,57184
2018-08-25T13:46:13.924Z,49248
2018-08-25T13:47:23.859Z,47744
2018-08-25T13:48:34.056Z,62496
2018-08-25T13:49:44.271Z,36800
2018-08-25T13:50:54.384Z,23392
2018-08-25T13:52:04.643Z,20000
2018-08-25T13:53:14.835Z,18752
2018-08-25T13:54:25.024Z,13856
2018-08-25T13:55:35.343Z,11800
2018-08-25T13:56:45.552Z,11136
2018-08-25T13:57:55.700Z,13224
2018-08-25T13:59:05.898Z,11012
2018-08-25T14:00:16.110Z,9452
2018-08-25T14:01:26.328Z,6988
2018-08-25T14:02:36.516Z,4924
2018-08-25T14:03:47.391Z,3756
2018-08-25T14:04:57.606Z,3100
2018-08-25T14:06:07.509Z,2456
2018-08-25T14:07:17.701Z,1860
2018-08-25T14:08:28.610Z,1508
2018-08-25T14:09:39.124Z,1312
2018-08-25T14:10:49.322Z,1216
2018-08-25T14:11:59.536Z,1156
2018-08-25T14:13:09.726Z,1040
2018-08-25T14:14:19.868Z,956
2018-08-25T14:15:30.085Z,920
2018-08-25T14:16:40.358Z,976
2018-08-25T14:17:50.378Z,992
2018-08-25T14:19:00.559Z,964
2018-08-25T14:20:10.759Z,980
2018-08-25T14:21:21.047Z,1000
2018-08-25T14:22:31.296Z,1052
2018-08-25T14:23:41.524Z,1160
2018-08-25T14:24:51.704Z,1164
2018-08-25T14:26:01.953Z,1156
2018-08-25T14:27:12.174Z,1088
2018-08-25T14:28:21.994Z,1108
2018-08-25T14:29:32.151Z,1236
2018-08-25T14:30:42.390Z,1452
2018-08-25T14:31:52.307Z,1744
2018-08-25T14:33:02.449Z,2136
2018-08-25T14:34:12.624Z,2472
2018-08-25T14:35:22.819Z,2880
2018-08-25T14:36:32.757Z,3256
2018-08-25T14:37:42.655Z,3688
2018-08-25T14:38:52.820Z,4192
2018-08-25T14:40:03.014Z,4616
2018-08-25T14:41:13.286Z,4956
2018-08-25T14:42:23.435Z,5308
2018-08-25T14:43:33.633Z,5604
2018-08-25T14:44:43.953Z,5712
2018-08-25T14:45:54.146Z,5928
2018-08-25T14:47:04.411Z,6320
2018-08-25T14:48:14.620Z,6556
2018-08-25T14:49:24.818Z,6052
2018-08-25T14:50:35.069Z,5348
2018-08-25T14:51:45.242Z,4596
2018-08-25T14:52:55.384Z,4100
2018-08-25T14:54:05.261Z,4108
2018-08-25T14:55:15.443Z,5020
2018-08-25T14:56:25.665Z,6408
2018-08-25T14:57:35.909Z,7048
2018-08-25T14:58:46.178Z,8020
2018-08-25T14:59:56.457Z,8516
2018-08-25T15:01:06.265Z,9832
2018-08-25T15:02:16.434Z,12352
2018-08-25T15:03:26.582Z,14752
2018-08-25T15:04:36.749Z,14272
2018-08-25T15:05:46.993Z,13592
2018-08-25T15:06:57.170Z,14432
2018-08-25T15:08:07.806Z,33952
2018-08-25T15:09:17.994Z,41088
2018-08-25T15:10:28.122Z,38656
2018-08-25T15:11:38.251Z,27712
2018-08-25T15:12:48.440Z,30752
2018-08-25T15:13:58.678Z,23456
2018-08-25T15:15:08.934Z,40480
2018-08-25T15:16:19.110Z,41472
2018-08-25T15:17:29.280Z,40480
2018-08-25T15:18:39.517Z,37120
2018-08-25T15:19:49.784Z,35552
2018-08-25T15:20:59.697Z,33856
2018-08-25T15:22:09.917Z,33984
2018-08-25T15:23:20.081Z,32800
2018-08-25T15:24:29.985Z,33152
2018-08-25T15:25:39.928Z,32960
2018-08-25T15:26:49.827Z,31648
2018-08-25T15:27:59.991Z,31168
2018-08-25T15:29:10.127Z,29280
2018-08-25T15:30:19.702Z,29248
2018-08-25T15:31:29.929Z,28352
2018-08-25T15:32:40.175Z,27360
2018-08-25T15:33:50.415Z,28384
2018-08-25T15:35:00.578Z,10192
2018-08-25T15:36:10.824Z,24000
2018-08-25T15:37:21.060Z,14656
2018-08-25T15:38:31.261Z,12260
2018-08-25T15:39:41.446Z,27360
2018-08-25T15:40:51.601Z,6108
2018-08-25T15:42:01.824Z,6788
2018-08-25T15:43:12.270Z,6948
2018-08-25T15:44:22.962Z,7260
2018-08-25T15:45:33.221Z,8548
2018-08-25T15:46:43.362Z,8520
2018-08-25T15:47:53.672Z,8484
2018-08-25T15:49:03.531Z,7740
2018-08-25T15:50:13.507Z,6808
2018-08-25T15:51:23.672Z,5860
2018-08-25T15:52:33.948Z,5848